sensor_id;sensor_type;location;lat;lon;timestamp;P1;durP1;ratioP1;P2;durP2;ratioP2
40373;SDS011;26079;45.958;12.492;2022-12-28T00:01:50;3.72;;;2.60;;
40373;SDS011;26079;45.958;12.492;2022-12-28T00:04:16;2.42;;;1.88;;
40373;SDS011;26079;45.958;12.492;2022-12-28T00:06:42;2.60;;;2.20;;
40373;SDS011;26079;45.958;12.492;2022-12-28T00:09:07;5.80;;;2.63;;
40373;SDS011;26079;45.958;12.492;2022-12-28T00:11:35;3.05;;;2.03;;
40373;SDS011;26079;45.958;12.492;2022-12-28T00:14:01;3.08;;;2.13;;
40373;SDS011;26079;45.958;12.492;2022-12-28T00:16:30;3.22;;;2.13;;
40373;SDS011;26079;45.958;12.492;2022-12-28T00:19:02;4.50;;;2.42;;
40373;SDS011;26079;45.958;12.492;2022-12-28T00:21:29;2.80;;;1.80;;
40373;SDS011;26079;45.958;12.492;2022-12-28T00:23:56;9.07;;;2.25;;
40373;SDS011;26079;45.958;12.492;2022-12-28T00:26:23;4.03;;;2.25;;
40373;SDS011;26079;45.958;12.492;2022-12-28T00:28:50;2.08;;;1.80;;
40373;SDS011;26079;45.958;12.492;2022-12-28T00:31:15;2.25;;;2.00;;
40373;SDS011;26079;45.958;12.492;2022-12-28T00:33:41;2.40;;;2.17;;
40373;SDS011;26079;45.958;12.492;2022-12-28T00:36:09;2.72;;;2.22;;
40373;SDS011;26079;45.958;12.492;2022-12-28T00:38:36;2.42;;;2.22;;
40373;SDS011;26079;45.958;12.492;2022-12-28T00:41:02;3.42;;;2.70;;
40373;SDS011;26079;45.958;12.492;2022-12-28T00:43:29;3.40;;;1.95;;
40373;SDS011;26079;45.958;12.492;2022-12-28T00:45:55;3.53;;;2.20;;
40373;SDS011;26079;45.958;12.492;2022-12-28T00:48:21;2.33;;;2.13;;
40373;SDS011;26079;45.958;12.492;2022-12-28T00:50:46;2.20;;;1.85;;
40373;SDS011;26079;45.958;12.492;2022-12-28T00:53:12;4.97;;;2.25;;
40373;SDS011;26079;45.958;12.492;2022-12-28T00:55:38;2.10;;;1.90;;
40373;SDS011;26079;45.958;12.492;2022-12-28T00:58:05;2.45;;;1.95;;
40373;SDS011;26079;45.958;12.492;2022-12-28T01:00:31;2.53;;;1.83;;
40373;SDS011;26079;45.958;12.492;2022-12-28T01:02:57;3.00;;;1.60;;
40373;SDS011;26079;45.958;12.492;2022-12-28T01:05:23;3.13;;;2.13;;
40373;SDS011;26079;45.958;12.492;2022-12-28T01:07:49;4.10;;;2.03;;
40373;SDS011;26079;45.958;12.492;2022-12-28T01:10:15;4.22;;;1.88;;
40373;SDS011;26079;45.958;12.492;2022-12-28T01:12:41;2.53;;;1.88;;
40373;SDS011;26079;45.958;12.492;2022-12-28T01:15:08;2.60;;;1.95;;
40373;SDS011;26079;45.958;12.492;2022-12-28T01:17:35;2.28;;;1.88;;
40373;SDS011;26079;45.958;12.492;2022-12-28T01:20:01;2.13;;;1.80;;
40373;SDS011;26079;45.958;12.492;2022-12-28T01:22:27;2.80;;;2.42;;
40373;SDS011;26079;45.958;12.492;2022-12-28T01:24:52;1.85;;;1.65;;
40373;SDS011;26079;45.958;12.492;2022-12-28T01:27:18;3.08;;;1.58;;
40373;SDS011;26079;45.958;12.492;2022-12-28T01:29:44;2.53;;;2.00;;
40373;SDS011;26079;45.958;12.492;2022-12-28T01:32:09;2.42;;;1.55;;
40373;SDS011;26079;45.958;12.492;2022-12-28T01:34:35;1.85;;;1.75;;
40373;SDS011;26079;45.958;12.492;2022-12-28T01:37:01;2.20;;;1.42;;
40373;SDS011;26079;45.958;12.492;2022-12-28T01:39:27;1.95;;;1.63;;
40373;SDS011;26079;45.958;12.492;2022-12-28T01:41:53;3.30;;;2.00;;
40373;SDS011;26079;45.958;12.492;2022-12-28T01:46:59;1.50;;;1.40;;
40373;SDS011;26079;45.958;12.492;2022-12-28T01:49:30;2.42;;;1.58;;
40373;SDS011;26079;45.958;12.492;2022-12-28T01:52:02;2.05;;;1.80;;
40373;SDS011;26079;45.958;12.492;2022-12-28T01:54:50;1.85;;;1.55;;
40373;SDS011;26079;45.958;12.492;2022-12-28T01:57:36;3.67;;;2.17;;
40373;SDS011;26079;45.958;12.492;2022-12-28T02:00:08;2.10;;;1.90;;
40373;SDS011;26079;45.958;12.492;2022-12-28T02:02:35;2.28;;;1.60;;
40373;SDS011;26079;45.958;12.492;2022-12-28T02:05:02;2.60;;;2.10;;
40373;SDS011;26079;45.958;12.492;2022-12-28T02:10:23;4.78;;;2.47;;
40373;SDS011;26079;45.958;12.492;2022-12-28T02:12:50;2.72;;;1.92;;
40373;SDS011;26079;45.958;12.492;2022-12-28T02:15:17;2.20;;;2.00;;
40373;SDS011;26079;45.958;12.492;2022-12-28T02:17:43;2.42;;;2.22;;
40373;SDS011;26079;45.958;12.492;2022-12-28T02:20:09;1.75;;;1.58;;
40373;SDS011;26079;45.958;12.492;2022-12-28T02:22:41;3.88;;;2.53;;
40373;SDS011;26079;45.958;12.492;2022-12-28T02:25:32;3.85;;;2.78;;
40373;SDS011;26079;45.958;12.492;2022-12-28T02:31:17;6.43;;;4.45;;
40373;SDS011;26079;45.958;12.492;2022-12-28T02:36:45;15.30;;;9.63;;
40373;SDS011;26079;45.958;12.492;2022-12-28T02:39:18;9.73;;;5.80;;
40373;SDS011;26079;45.958;12.492;2022-12-28T02:41:48;12.65;;;7.18;;
40373;SDS011;26079;45.958;12.492;2022-12-28T02:44:15;13.27;;;7.60;;
40373;SDS011;26079;45.958;12.492;2022-12-28T02:47:01;20.38;;;9.45;;
40373;SDS011;26079;45.958;12.492;2022-12-28T02:49:46;11.13;;;7.43;;
40373;SDS011;26079;45.958;12.492;2022-12-28T03:04:13;11.00;;;7.30;;
40373;SDS011;26079;45.958;12.492;2022-12-28T03:12:47;9.02;;;6.50;;
40373;SDS011;26079;45.958;12.492;2022-12-28T03:15:20;6.25;;;5.00;;
40373;SDS011;26079;45.958;12.492;2022-12-28T03:23:53;8.10;;;4.57;;
40373;SDS011;26079;45.958;12.492;2022-12-28T03:26:40;4.70;;;4.10;;
40373;SDS011;26079;45.958;12.492;2022-12-28T03:29:29;5.43;;;4.50;;
40373;SDS011;26079;45.958;12.492;2022-12-28T03:32:20;4.25;;;3.47;;
40373;SDS011;26079;45.958;12.492;2022-12-28T03:34:46;6.03;;;3.33;;
40373;SDS011;26079;45.958;12.492;2022-12-28T03:37:46;3.90;;;3.30;;
40373;SDS011;26079;45.958;12.492;2022-12-28T03:40:08;5.45;;;2.85;;
40373;SDS011;26079;45.958;12.492;2022-12-28T03:42:52;2.90;;;2.45;;
40373;SDS011;26079;45.958;12.492;2022-12-28T03:45:40;3.42;;;2.67;;
40373;SDS011;26079;45.958;12.492;2022-12-28T03:48:15;3.88;;;2.58;;
40373;SDS011;26079;45.958;12.492;2022-12-28T03:50:42;5.15;;;2.63;;
40373;SDS011;26079;45.958;12.492;2022-12-28T03:53:10;3.42;;;2.65;;
40373;SDS011;26079;45.958;12.492;2022-12-28T03:55:35;3.30;;;2.67;;
40373;SDS011;26079;45.958;12.492;2022-12-28T03:58:02;7.18;;;2.75;;
40373;SDS011;26079;45.958;12.492;2022-12-28T04:00:28;2.70;;;2.30;;
40373;SDS011;26079;45.958;12.492;2022-12-28T04:02:54;3.63;;;2.35;;
40373;SDS011;26079;45.958;12.492;2022-12-28T04:05:20;5.15;;;2.53;;
40373;SDS011;26079;45.958;12.492;2022-12-28T04:07:45;4.55;;;2.10;;
40373;SDS011;26079;45.958;12.492;2022-12-28T04:10:11;3.00;;;2.45;;
40373;SDS011;26079;45.958;12.492;2022-12-28T04:12:37;2.70;;;2.50;;
40373;SDS011;26079;45.958;12.492;2022-12-28T04:15:03;2.72;;;2.33;;
40373;SDS011;26079;45.958;12.492;2022-12-28T04:17:29;5.72;;;2.53;;
40373;SDS011;26079;45.958;12.492;2022-12-28T04:19:55;3.22;;;2.40;;
40373;SDS011;26079;45.958;12.492;2022-12-28T04:22:21;3.00;;;2.70;;
40373;SDS011;26079;45.958;12.492;2022-12-28T04:24:46;3.00;;;2.53;;
40373;SDS011;26079;45.958;12.492;2022-12-28T04:27:12;3.22;;;2.55;;
40373;SDS011;26079;45.958;12.492;2022-12-28T04:29:38;3.72;;;2.75;;
40373;SDS011;26079;45.958;12.492;2022-12-28T04:32:03;3.25;;;2.95;;
40373;SDS011;26079;45.958;12.492;2022-12-28T04:34:30;6.43;;;3.53;;
40373;SDS011;26079;45.958;12.492;2022-12-28T04:36:55;3.60;;;3.03;;
40373;SDS011;26079;45.958;12.492;2022-12-28T04:39:21;4.55;;;3.15;;
40373;SDS011;26079;45.958;12.492;2022-12-28T04:41:47;6.68;;;3.25;;
40373;SDS011;26079;45.958;12.492;2022-12-28T04:44:12;8.27;;;5.57;;
40373;SDS011;26079;45.958;12.492;2022-12-28T04:46:38;6.65;;;3.78;;
40373;SDS011;26079;45.958;12.492;2022-12-28T04:49:04;5.20;;;3.30;;
40373;SDS011;26079;45.958;12.492;2022-12-28T04:51:30;6.88;;;3.38;;
40373;SDS011;26079;45.958;12.492;2022-12-28T04:53:56;5.22;;;2.60;;
40373;SDS011;26079;45.958;12.492;2022-12-28T04:56:22;4.47;;;3.00;;
40373;SDS011;26079;45.958;12.492;2022-12-28T04:58:55;4.68;;;3.60;;
40373;SDS011;26079;45.958;12.492;2022-12-28T05:01:22;5.45;;;3.00;;
40373;SDS011;26079;45.958;12.492;2022-12-28T05:03:48;4.10;;;3.35;;
40373;SDS011;26079;45.958;12.492;2022-12-28T05:06:16;3.25;;;2.95;;
40373;SDS011;26079;45.958;12.492;2022-12-28T05:08:43;4.55;;;3.63;;
40373;SDS011;26079;45.958;12.492;2022-12-28T05:11:13;6.55;;;3.65;;
40373;SDS011;26079;45.958;12.492;2022-12-28T05:13:41;9.90;;;3.47;;
40373;SDS011;26079;45.958;12.492;2022-12-28T05:16:11;4.05;;;3.25;;
40373;SDS011;26079;45.958;12.492;2022-12-28T05:18:38;2.83;;;2.63;;
40373;SDS011;26079;45.958;12.492;2022-12-28T05:21:08;3.25;;;2.70;;
40373;SDS011;26079;45.958;12.492;2022-12-28T05:23:41;3.20;;;2.50;;
40373;SDS011;26079;45.958;12.492;2022-12-28T05:26:08;3.30;;;3.00;;
40373;SDS011;26079;45.958;12.492;2022-12-28T05:28:36;3.58;;;2.95;;
40373;SDS011;26079;45.958;12.492;2022-12-28T05:31:03;3.70;;;2.80;;
40373;SDS011;26079;45.958;12.492;2022-12-28T05:33:32;4.15;;;2.72;;
40373;SDS011;26079;45.958;12.492;2022-12-28T05:36:06;3.38;;;3.08;;
40373;SDS011;26079;45.958;12.492;2022-12-28T05:38:35;3.42;;;2.92;;
40373;SDS011;26079;45.958;12.492;2022-12-28T05:43:30;3.75;;;2.60;;
40373;SDS011;26079;45.958;12.492;2022-12-28T05:45:59;3.45;;;3.03;;
40373;SDS011;26079;45.958;12.492;2022-12-28T05:48:28;5.22;;;3.33;;
40373;SDS011;26079;45.958;12.492;2022-12-28T05:50:59;7.03;;;3.17;;
40373;SDS011;26079;45.958;12.492;2022-12-28T05:53:30;3.65;;;3.15;;
40373;SDS011;26079;45.958;12.492;2022-12-28T05:58:29;5.50;;;4.43;;
40373;SDS011;26079;45.958;12.492;2022-12-28T06:01:08;8.25;;;5.10;;
40373;SDS011;26079;45.958;12.492;2022-12-28T06:03:38;25.02;;;12.30;;
40373;SDS011;26079;45.958;12.492;2022-12-28T06:06:05;10.32;;;6.10;;
40373;SDS011;26079;45.958;12.492;2022-12-28T06:08:33;11.95;;;6.25;;
40373;SDS011;26079;45.958;12.492;2022-12-28T06:11:04;11.82;;;5.80;;
40373;SDS011;26079;45.958;12.492;2022-12-28T06:13:31;15.15;;;8.63;;
40373;SDS011;26079;45.958;12.492;2022-12-28T06:15:58;8.45;;;5.70;;
40373;SDS011;26079;45.958;12.492;2022-12-28T06:18:28;5.05;;;4.45;;
40373;SDS011;26079;45.958;12.492;2022-12-28T06:20:59;7.82;;;4.07;;
40373;SDS011;26079;45.958;12.492;2022-12-28T06:23:29;5.68;;;4.68;;
40373;SDS011;26079;45.958;12.492;2022-12-28T06:25:56;6.75;;;4.90;;
40373;SDS011;26079;45.958;12.492;2022-12-28T06:28:23;5.88;;;5.25;;
40373;SDS011;26079;45.958;12.492;2022-12-28T06:30:49;7.10;;;4.90;;
40373;SDS011;26079;45.958;12.492;2022-12-28T06:33:15;7.45;;;6.13;;
40373;SDS011;26079;45.958;12.492;2022-12-28T06:35:40;5.72;;;5.18;;
40373;SDS011;26079;45.958;12.492;2022-12-28T06:38:06;7.70;;;6.90;;
40373;SDS011;26079;45.958;12.492;2022-12-28T06:40:32;8.27;;;5.82;;
40373;SDS011;26079;45.958;12.492;2022-12-28T06:42:57;8.52;;;6.28;;
40373;SDS011;26079;45.958;12.492;2022-12-28T06:45:23;7.97;;;6.10;;
40373;SDS011;26079;45.958;12.492;2022-12-28T06:47:49;22.67;;;18.20;;
40373;SDS011;26079;45.958;12.492;2022-12-28T06:50:14;12.15;;;8.00;;
40373;SDS011;26079;45.958;12.492;2022-12-28T06:52:40;15.43;;;13.20;;
40373;SDS011;26079;45.958;12.492;2022-12-28T06:55:06;13.52;;;9.75;;
40373;SDS011;26079;45.958;12.492;2022-12-28T06:57:32;10.05;;;8.30;;
40373;SDS011;26079;45.958;12.492;2022-12-28T06:59:57;15.65;;;12.82;;
40373;SDS011;26079;45.958;12.492;2022-12-28T07:02:23;13.63;;;11.27;;
40373;SDS011;26079;45.958;12.492;2022-12-28T07:04:49;21.60;;;13.40;;
40373;SDS011;26079;45.958;12.492;2022-12-28T07:07:14;15.20;;;10.68;;
40373;SDS011;26079;45.958;12.492;2022-12-28T07:09:40;14.20;;;10.23;;
40373;SDS011;26079;45.958;12.492;2022-12-28T07:12:06;11.77;;;9.02;;
40373;SDS011;26079;45.958;12.492;2022-12-28T07:14:31;13.32;;;10.65;;
40373;SDS011;26079;45.958;12.492;2022-12-28T07:16:57;16.05;;;10.77;;
40373;SDS011;26079;45.958;12.492;2022-12-28T07:19:23;11.15;;;8.98;;
40373;SDS011;26079;45.958;12.492;2022-12-28T07:21:48;13.00;;;10.18;;
40373;SDS011;26079;45.958;12.492;2022-12-28T07:24:14;12.30;;;10.40;;
40373;SDS011;26079;45.958;12.492;2022-12-28T07:26:40;13.18;;;10.80;;
40373;SDS011;26079;45.958;12.492;2022-12-28T07:29:06;11.35;;;9.05;;
40373;SDS011;26079;45.958;12.492;2022-12-28T07:31:37;13.95;;;10.15;;
40373;SDS011;26079;45.958;12.492;2022-12-28T07:34:04;14.65;;;9.32;;
40373;SDS011;26079;45.958;12.492;2022-12-28T07:36:30;12.02;;;7.88;;
40373;SDS011;26079;45.958;12.492;2022-12-28T07:38:57;9.70;;;7.03;;
40373;SDS011;26079;45.958;12.492;2022-12-28T07:41:30;9.40;;;6.55;;
40373;SDS011;26079;45.958;12.492;2022-12-28T07:43:57;10.25;;;6.78;;
40373;SDS011;26079;45.958;12.492;2022-12-28T07:46:24;10.40;;;6.53;;
40373;SDS011;26079;45.958;12.492;2022-12-28T07:48:52;6.95;;;6.25;;
40373;SDS011;26079;45.958;12.492;2022-12-28T07:53:46;9.50;;;8.38;;
40373;SDS011;26079;45.958;12.492;2022-12-28T07:56:13;9.55;;;7.80;;
40373;SDS011;26079;45.958;12.492;2022-12-28T07:58:39;9.27;;;7.53;;
40373;SDS011;26079;45.958;12.492;2022-12-28T08:01:10;11.63;;;6.90;;
40373;SDS011;26079;45.958;12.492;2022-12-28T08:03:40;9.77;;;8.05;;
40373;SDS011;26079;45.958;12.492;2022-12-28T08:08:36;13.05;;;10.15;;
40373;SDS011;26079;45.958;12.492;2022-12-28T08:11:03;11.95;;;9.60;;
40373;SDS011;26079;45.958;12.492;2022-12-28T08:13:31;12.38;;;8.63;;
40373;SDS011;26079;45.958;12.492;2022-12-28T08:16:01;11.93;;;7.85;;
40373;SDS011;26079;45.958;12.492;2022-12-28T08:18:26;9.73;;;8.00;;
40373;SDS011;26079;45.958;12.492;2022-12-28T08:20:53;9.45;;;7.30;;
40373;SDS011;26079;45.958;12.492;2022-12-28T08:23:19;9.20;;;8.30;;
40373;SDS011;26079;45.958;12.492;2022-12-28T08:25:45;10.88;;;8.68;;
40373;SDS011;26079;45.958;12.492;2022-12-28T08:28:11;10.48;;;9.38;;
40373;SDS011;26079;45.958;12.492;2022-12-28T08:30:36;12.40;;;8.85;;
40373;SDS011;26079;45.958;12.492;2022-12-28T08:33:02;7.68;;;6.53;;
40373;SDS011;26079;45.958;12.492;2022-12-28T08:35:28;8.70;;;6.75;;
40373;SDS011;26079;45.958;12.492;2022-12-28T08:37:54;12.02;;;7.95;;
40373;SDS011;26079;45.958;12.492;2022-12-28T08:40:20;9.85;;;6.13;;
40373;SDS011;26079;45.958;12.492;2022-12-28T08:42:51;11.48;;;6.63;;
40373;SDS011;26079;45.958;12.492;2022-12-28T08:45:20;12.57;;;6.85;;
40373;SDS011;26079;45.958;12.492;2022-12-28T08:47:45;7.63;;;6.82;;
40373;SDS011;26079;45.958;12.492;2022-12-28T08:50:11;10.95;;;7.40;;
40373;SDS011;26079;45.958;12.492;2022-12-28T08:52:37;16.13;;;10.38;;
40373;SDS011;26079;45.958;12.492;2022-12-28T08:55:02;14.55;;;12.82;;
40373;SDS011;26079;45.958;12.492;2022-12-28T08:57:28;13.77;;;11.13;;
40373;SDS011;26079;45.958;12.492;2022-12-28T08:59:54;13.73;;;11.25;;
40373;SDS011;26079;45.958;12.492;2022-12-28T09:02:20;14.10;;;9.00;;
40373;SDS011;26079;45.958;12.492;2022-12-28T09:04:45;11.85;;;9.80;;
40373;SDS011;26079;45.958;12.492;2022-12-28T09:07:11;16.17;;;9.38;;
40373;SDS011;26079;45.958;12.492;2022-12-28T09:09:36;12.73;;;10.25;;
40373;SDS011;26079;45.958;12.492;2022-12-28T09:12:02;14.98;;;10.48;;
40373;SDS011;26079;45.958;12.492;2022-12-28T09:14:28;11.43;;;8.82;;
40373;SDS011;26079;45.958;12.492;2022-12-28T09:16:53;11.07;;;8.98;;
40373;SDS011;26079;45.958;12.492;2022-12-28T09:19:19;11.60;;;9.13;;
40373;SDS011;26079;45.958;12.492;2022-12-28T09:21:46;12.35;;;8.90;;
40373;SDS011;26079;45.958;12.492;2022-12-28T09:24:13;10.57;;;7.93;;
40373;SDS011;26079;45.958;12.492;2022-12-28T09:26:39;14.02;;;10.10;;
40373;SDS011;26079;45.958;12.492;2022-12-28T09:29:05;10.38;;;9.25;;
40373;SDS011;26079;45.958;12.492;2022-12-28T09:31:33;10.27;;;6.88;;
40373;SDS011;26079;45.958;12.492;2022-12-28T09:34:04;9.43;;;6.15;;
40373;SDS011;26079;45.958;12.492;2022-12-28T09:36:36;10.57;;;8.55;;
40373;SDS011;26079;45.958;12.492;2022-12-28T09:39:04;10.13;;;7.97;;
40373;SDS011;26079;45.958;12.492;2022-12-28T09:44:26;7.47;;;4.68;;
40373;SDS011;26079;45.958;12.492;2022-12-28T09:49:50;6.78;;;5.40;;
40373;SDS011;26079;45.958;12.492;2022-12-28T09:52:35;7.00;;;4.45;;
40373;SDS011;26079;45.958;12.492;2022-12-28T09:55:17;5.65;;;4.22;;
40373;SDS011;26079;45.958;12.492;2022-12-28T09:57:47;7.32;;;4.18;;
40373;SDS011;26079;45.958;12.492;2022-12-28T10:00:20;7.10;;;5.13;;
40373;SDS011;26079;45.958;12.492;2022-12-28T10:02:50;8.88;;;6.13;;
40373;SDS011;26079;45.958;12.492;2022-12-28T10:05:19;5.88;;;4.53;;
40373;SDS011;26079;45.958;12.492;2022-12-28T10:07:45;9.55;;;5.40;;
40373;SDS011;26079;45.958;12.492;2022-12-28T10:10:13;8.82;;;5.70;;
40373;SDS011;26079;45.958;12.492;2022-12-28T10:12:41;6.82;;;5.10;;
40373;SDS011;26079;45.958;12.492;2022-12-28T10:15:10;7.43;;;5.60;;
40373;SDS011;26079;45.958;12.492;2022-12-28T10:17:37;7.45;;;6.43;;
40373;SDS011;26079;45.958;12.492;2022-12-28T10:20:03;7.18;;;5.90;;
40373;SDS011;26079;45.958;12.492;2022-12-28T10:22:36;7.05;;;5.05;;
40373;SDS011;26079;45.958;12.492;2022-12-28T10:25:37;6.10;;;5.10;;
40373;SDS011;26079;45.958;12.492;2022-12-28T10:27:56;7.20;;;5.45;;
40373;SDS011;26079;45.958;12.492;2022-12-28T10:30:24;8.32;;;5.80;;
40373;SDS011;26079;45.958;12.492;2022-12-28T10:32:54;12.07;;;5.53;;
40373;SDS011;26079;45.958;12.492;2022-12-28T10:35:26;6.65;;;5.25;;
40373;SDS011;26079;45.958;12.492;2022-12-28T10:38:22;8.75;;;5.47;;
40373;SDS011;26079;45.958;12.492;2022-12-28T10:43:57;8.13;;;5.95;;
40373;SDS011;26079;45.958;12.492;2022-12-28T10:46:22;8.90;;;6.03;;
40373;SDS011;26079;45.958;12.492;2022-12-28T10:48:52;10.05;;;6.65;;
40373;SDS011;26079;45.958;12.492;2022-12-28T10:51:22;10.10;;;6.65;;
40373;SDS011;26079;45.958;12.492;2022-12-28T10:53:50;10.50;;;5.78;;
40373;SDS011;26079;45.958;12.492;2022-12-28T11:01:37;6.55;;;5.50;;
40373;SDS011;26079;45.958;12.492;2022-12-28T11:06:35;14.82;;;11.70;;
40373;SDS011;26079;45.958;12.492;2022-12-28T11:09:23;7.85;;;5.80;;
40373;SDS011;26079;45.958;12.492;2022-12-28T11:14:48;5.53;;;2.60;;
40373;SDS011;26079;45.958;12.492;2022-12-28T11:19:41;3.55;;;2.72;;
40373;SDS011;26079;45.958;12.492;2022-12-28T11:22:11;5.40;;;3.15;;
40373;SDS011;26079;45.958;12.492;2022-12-28T11:24:40;4.53;;;3.55;;
40373;SDS011;26079;45.958;12.492;2022-12-28T11:27:08;9.68;;;3.17;;
40373;SDS011;26079;45.958;12.492;2022-12-28T11:29:37;4.07;;;2.42;;
40373;SDS011;26079;45.958;12.492;2022-12-28T11:32:11;3.13;;;2.83;;
40373;SDS011;26079;45.958;12.492;2022-12-28T11:35:02;3.10;;;2.80;;
40373;SDS011;26079;45.958;12.492;2022-12-28T11:37:28;4.72;;;2.65;;
40373;SDS011;26079;45.958;12.492;2022-12-28T11:39:53;6.20;;;3.15;;
40373;SDS011;26079;45.958;12.492;2022-12-28T11:45:01;2.30;;;1.98;;
40373;SDS011;26079;45.958;12.492;2022-12-28T11:47:29;2.70;;;1.98;;
40373;SDS011;26079;45.958;12.492;2022-12-28T11:52:57;2.78;;;2.33;;
40373;SDS011;26079;45.958;12.492;2022-12-28T11:57:50;6.15;;;2.80;;
40373;SDS011;26079;45.958;12.492;2022-12-28T12:10:39;2.47;;;2.00;;
40373;SDS011;26079;45.958;12.492;2022-12-28T12:18:24;2.90;;;2.03;;
40373;SDS011;26079;45.958;12.492;2022-12-28T12:20:54;1.75;;;1.48;;
40373;SDS011;26079;45.958;12.492;2022-12-28T12:29:01;2.55;;;1.48;;
40373;SDS011;26079;45.958;12.492;2022-12-28T12:31:40;1.83;;;1.20;;
40373;SDS011;26079;45.958;12.492;2022-12-28T12:34:20;1.73;;;1.63;;
40373;SDS011;26079;45.958;12.492;2022-12-28T12:51:29;1.95;;;1.80;;
40373;SDS011;26079;45.958;12.492;2022-12-28T12:54:17;1.45;;;1.35;;
40373;SDS011;26079;45.958;12.492;2022-12-28T12:56:55;1.88;;;1.67;;
40373;SDS011;26079;45.958;12.492;2022-12-28T13:05:09;2.45;;;2.22;;
40373;SDS011;26079;45.958;12.492;2022-12-28T13:07:41;4.30;;;2.65;;
40373;SDS011;26079;45.958;12.492;2022-12-28T13:10:09;1.88;;;1.10;;
40373;SDS011;26079;45.958;12.492;2022-12-28T13:12:43;2.08;;;1.90;;
40373;SDS011;26079;45.958;12.492;2022-12-28T13:15:14;2.78;;;1.88;;
40373;SDS011;26079;45.958;12.492;2022-12-28T13:20:29;2.78;;;2.35;;
40373;SDS011;26079;45.958;12.492;2022-12-28T13:22:56;4.47;;;2.97;;
40373;SDS011;26079;45.958;12.492;2022-12-28T13:25:29;4.78;;;2.08;;
40373;SDS011;26079;45.958;12.492;2022-12-28T13:27:56;5.20;;;2.45;;
40373;SDS011;26079;45.958;12.492;2022-12-28T13:30:24;7.15;;;2.08;;
40373;SDS011;26079;45.958;12.492;2022-12-28T13:32:55;3.08;;;2.78;;
40373;SDS011;26079;45.958;12.492;2022-12-28T13:35:24;7.82;;;5.90;;
40373;SDS011;26079;45.958;12.492;2022-12-28T13:40:40;7.82;;;2.72;;
40373;SDS011;26079;45.958;12.492;2022-12-28T13:46:17;2.80;;;2.60;;
40373;SDS011;26079;45.958;12.492;2022-12-28T13:48:45;2.88;;;2.45;;
40373;SDS011;26079;45.958;12.492;2022-12-28T13:51:14;5.45;;;2.90;;
40373;SDS011;26079;45.958;12.492;2022-12-28T13:53:44;2.75;;;2.40;;
40373;SDS011;26079;45.958;12.492;2022-12-28T13:56:13;3.53;;;2.80;;
40373;SDS011;26079;45.958;12.492;2022-12-28T13:58:44;3.97;;;2.45;;
40373;SDS011;26079;45.958;12.492;2022-12-28T14:01:21;3.83;;;3.35;;
40373;SDS011;26079;45.958;12.492;2022-12-28T14:03:49;2.85;;;2.53;;
40373;SDS011;26079;45.958;12.492;2022-12-28T14:06:20;2.25;;;2.05;;
40373;SDS011;26079;45.958;12.492;2022-12-28T14:08:47;3.10;;;2.80;;
40373;SDS011;26079;45.958;12.492;2022-12-28T14:11:13;2.38;;;2.17;;
40373;SDS011;26079;45.958;12.492;2022-12-28T14:13:40;4.68;;;3.00;;
40373;SDS011;26079;45.958;12.492;2022-12-28T14:16:06;5.20;;;2.47;;
40373;SDS011;26079;45.958;12.492;2022-12-28T14:18:32;2.60;;;2.30;;
40373;SDS011;26079;45.958;12.492;2022-12-28T14:20:59;5.40;;;2.42;;
40373;SDS011;26079;45.958;12.492;2022-12-28T14:23:27;2.72;;;2.10;;
40373;SDS011;26079;45.958;12.492;2022-12-28T14:25:55;3.10;;;2.60;;
40373;SDS011;26079;45.958;12.492;2022-12-28T14:28:31;5.75;;;4.22;;
40373;SDS011;26079;45.958;12.492;2022-12-28T14:31:03;8.75;;;4.90;;
40373;SDS011;26079;45.958;12.492;2022-12-28T14:33:32;5.60;;;5.00;;
40373;SDS011;26079;45.958;12.492;2022-12-28T14:36:00;7.57;;;5.68;;
40373;SDS011;26079;45.958;12.492;2022-12-28T14:38:37;6.43;;;4.40;;
40373;SDS011;26079;45.958;12.492;2022-12-28T14:41:13;10.73;;;6.53;;
40373;SDS011;26079;45.958;12.492;2022-12-28T14:48:56;15.32;;;8.02;;
40373;SDS011;26079;45.958;12.492;2022-12-28T14:51:23;9.82;;;6.97;;
40373;SDS011;26079;45.958;12.492;2022-12-28T14:56:54;11.20;;;6.45;;
40373;SDS011;26079;45.958;12.492;2022-12-28T14:59:26;8.07;;;5.93;;
40373;SDS011;26079;45.958;12.492;2022-12-28T15:01:53;13.15;;;6.28;;
40373;SDS011;26079;45.958;12.492;2022-12-28T15:04:27;11.98;;;7.47;;
40373;SDS011;26079;45.958;12.492;2022-12-28T15:06:59;10.20;;;6.05;;
40373;SDS011;26079;45.958;12.492;2022-12-28T15:09:25;10.90;;;5.97;;
40373;SDS011;26079;45.958;12.492;2022-12-28T15:14:33;7.03;;;5.70;;
40373;SDS011;26079;45.958;12.492;2022-12-28T15:16:58;8.77;;;7.00;;
40373;SDS011;26079;45.958;12.492;2022-12-28T15:19:24;6.82;;;5.38;;
40373;SDS011;26079;45.958;12.492;2022-12-28T15:21:50;10.75;;;6.93;;
40373;SDS011;26079;45.958;12.492;2022-12-28T15:24:15;9.20;;;5.97;;
40373;SDS011;26079;45.958;12.492;2022-12-28T15:26:41;6.32;;;5.13;;
40373;SDS011;26079;45.958;12.492;2022-12-28T15:29:06;8.73;;;5.90;;
40373;SDS011;26079;45.958;12.492;2022-12-28T15:31:32;8.48;;;6.45;;
40373;SDS011;26079;45.958;12.492;2022-12-28T15:33:58;10.13;;;6.43;;
40373;SDS011;26079;45.958;12.492;2022-12-28T15:36:23;9.20;;;5.13;;
40373;SDS011;26079;45.958;12.492;2022-12-28T15:38:49;6.40;;;4.82;;
40373;SDS011;26079;45.958;12.492;2022-12-28T15:41:16;6.28;;;4.82;;
40373;SDS011;26079;45.958;12.492;2022-12-28T15:44:01;6.47;;;4.90;;
40373;SDS011;26079;45.958;12.492;2022-12-28T15:46:28;7.20;;;5.18;;
40373;SDS011;26079;45.958;12.492;2022-12-28T15:48:53;7.43;;;5.70;;
40373;SDS011;26079;45.958;12.492;2022-12-28T15:51:19;10.85;;;5.03;;
40373;SDS011;26079;45.958;12.492;2022-12-28T15:53:45;8.52;;;5.32;;
40373;SDS011;26079;45.958;12.492;2022-12-28T15:56:20;7.10;;;6.00;;
40373;SDS011;26079;45.958;12.492;2022-12-28T15:58:51;7.13;;;5.70;;
40373;SDS011;26079;45.958;12.492;2022-12-28T16:01:18;13.25;;;7.00;;
40373;SDS011;26079;45.958;12.492;2022-12-28T16:03:44;9.48;;;6.88;;
40373;SDS011;26079;45.958;12.492;2022-12-28T16:06:12;15.00;;;7.38;;
40373;SDS011;26079;45.958;12.492;2022-12-28T16:08:38;10.48;;;8.10;;
40373;SDS011;26079;45.958;12.492;2022-12-28T16:11:10;14.13;;;10.32;;
40373;SDS011;26079;45.958;12.492;2022-12-28T16:13:38;12.93;;;9.43;;
40373;SDS011;26079;45.958;12.492;2022-12-28T16:16:08;28.70;;;17.58;;
40373;SDS011;26079;45.958;12.492;2022-12-28T16:18:36;26.27;;;13.70;;
40373;SDS011;26079;45.958;12.492;2022-12-28T16:21:02;15.73;;;12.35;;
40373;SDS011;26079;45.958;12.492;2022-12-28T16:23:33;35.60;;;13.20;;
40373;SDS011;26079;45.958;12.492;2022-12-28T16:26:00;18.52;;;10.30;;
40373;SDS011;26079;45.958;12.492;2022-12-28T16:28:26;31.20;;;11.65;;
40373;SDS011;26079;45.958;12.492;2022-12-28T16:30:53;21.05;;;11.70;;
40373;SDS011;26079;45.958;12.492;2022-12-28T16:33:19;26.63;;;11.82;;
40373;SDS011;26079;45.958;12.492;2022-12-28T16:35:45;19.80;;;10.60;;
40373;SDS011;26079;45.958;12.492;2022-12-28T16:38:12;16.98;;;13.27;;
40373;SDS011;26079;45.958;12.492;2022-12-28T16:40:42;25.77;;;12.75;;
40373;SDS011;26079;45.958;12.492;2022-12-28T16:43:08;19.75;;;13.55;;
40373;SDS011;26079;45.958;12.492;2022-12-28T16:45:35;21.52;;;13.77;;
40373;SDS011;26079;45.958;12.492;2022-12-28T16:48:02;27.52;;;16.13;;
40373;SDS011;26079;45.958;12.492;2022-12-28T16:50:29;26.10;;;17.60;;
40373;SDS011;26079;45.958;12.492;2022-12-28T16:52:56;29.15;;;18.42;;
40373;SDS011;26079;45.958;12.492;2022-12-28T16:55:28;25.90;;;18.63;;